createdAt,value
2018-09-01T00:00:32.955Z,91.01
2018-09-01T00:03:00.483Z,90.66
2018-09-01T00:05:29.064Z,91.30
2018-09-01T00:07:56.619Z,90.78
2018-09-01T00:10:24.197Z,91.12
2018-09-01T00:12:51.745Z,91.29
2018-09-01T00:15:19.452Z,91.68
2018-09-01T00:17:47.014Z,91.82
2018-09-01T00:20:14.532Z,91.43
2018-09-01T00:22:42.438Z,91.64
2018-09-01T00:25:09.951Z,91.68
2018-09-01T00:27:37.462Z,91.45
2018-09-01T00:30:05.078Z,91.77
2018-09-01T00:32:32.648Z,91.33
2018-09-01T00:35:00.206Z,90.89
2018-09-01T00:37:33.370Z,91.20
2018-09-01T00:40:01.081Z,91.39
2018-09-01T00:42:28.715Z,91.25
2018-09-01T00:44:56.225Z,91.91
2018-09-01T00:47:23.838Z,91.85
2018-09-01T00:49:51.432Z,91.66
2018-09-01T00:52:18.938Z,92.19
2018-09-01T00:54:46.727Z,92.26
2018-09-01T00:57:14.262Z,92.42
2018-09-01T00:59:41.883Z,92.01
2018-09-01T01:02:09.437Z,91.58
2018-09-01T01:04:37.390Z,91.47
2018-09-01T01:07:04.931Z,91.08
2018-09-01T01:09:32.431Z,91.59
2018-09-01T01:11:59.964Z,91.49
2018-09-01T01:14:27.518Z,90.96
2018-09-01T01:16:55.067Z,90.91
2018-09-01T01:19:22.651Z,90.90
2018-09-01T01:21:50.291Z,91.08
2018-09-01T01:24:17.823Z,90.94
2018-09-01T01:26:45.345Z,91.12
2018-09-01T01:29:12.942Z,91.57
2018-09-01T01:31:40.530Z,91.52
2018-09-01T01:34:08.404Z,91.15
2018-09-01T01:36:35.934Z,91.16
2018-09-01T01:39:04.469Z,90.67
2018-09-01T01:41:32.270Z,91.35
2018-09-01T01:43:59.815Z,91.60
2018-09-01T01:46:27.398Z,91.26
2018-09-01T01:48:54.934Z,91.42
2018-09-01T01:51:22.595Z,90.79
2018-09-01T01:53:50.102Z,90.84
2018-09-01T01:56:17.622Z,90.78
2018-09-01T01:58:45.205Z,90.59
2018-09-01T02:01:12.732Z,90.54
2018-09-01T02:03:40.272Z,90.56
2018-09-01T02:06:07.822Z,90.78
2018-09-01T02:08:35.351Z,90.88
2018-09-01T02:11:02.882Z,90.79
2018-09-01T02:13:30.392Z,90.87
2018-09-01T02:15:57.922Z,90.40
2018-09-01T02:18:25.471Z,90.63
2018-09-01T02:20:52.991Z,90.87
2018-09-01T02:23:20.530Z,91.20
2018-09-01T02:25:48.122Z,91.47
2018-09-01T02:28:15.638Z,91.47
2018-09-01T02:30:43.194Z,91.32
2018-09-01T02:33:10.711Z,91.56
2018-09-01T02:35:38.243Z,91.70
2018-09-01T02:38:05.811Z,91.54
2018-09-01T02:40:33.334Z,92.27
2018-09-01T02:43:01.143Z,91.98
2018-09-01T02:45:28.701Z,92.17
2018-09-01T02:47:56.223Z,91.93
2018-09-01T02:50:24.082Z,91.82
2018-09-01T02:52:51.606Z,91.71
2018-09-01T02:55:19.160Z,92.04
2018-09-01T02:57:46.707Z,91.99
2018-09-01T03:00:19.858Z,92.32
2018-09-01T03:02:47.428Z,92.32
2018-09-01T03:05:15.578Z,92.05
2018-09-01T03:07:43.161Z,92.17
2018-09-01T03:10:10.702Z,92.24
2018-09-01T03:12:38.310Z,91.80
2018-09-01T03:15:06.079Z,92.07
2018-09-01T03:17:33.627Z,91.49
2018-09-01T03:20:01.188Z,91.38
2018-09-01T03:22:28.721Z,91.40
2018-09-01T03:24:56.550Z,91.32
2018-09-01T03:27:24.124Z,91.73
2018-09-01T03:29:51.669Z,91.74
2018-09-01T03:32:19.264Z,91.84
2018-09-01T03:34:46.834Z,91.84
2018-09-01T03:37:14.355Z,91.62
2018-09-01T03:39:41.899Z,91.53
2018-09-01T03:42:09.423Z,91.11
2018-09-01T03:44:36.972Z,91.00
2018-09-01T03:47:04.628Z,91.00
2018-09-01T03:49:32.537Z,90.71
2018-09-01T03:52:00.057Z,91.09
2018-09-01T03:54:27.574Z,91.39
2018-09-01T03:56:55.106Z,91.64
2018-09-01T03:59:22.673Z,91.07
2018-09-01T04:01:50.247Z,91.37
2018-09-01T04:04:17.799Z,91.36
2018-09-01T04:06:45.293Z,91.40
2018-09-01T04:09:12.862Z,90.88
2018-09-01T04:11:40.411Z,90.82
2018-09-01T04:14:07.985Z,91.31
2018-09-01T04:16:35.527Z,91.01
2018-09-01T04:19:08.750Z,91.52
2018-09-01T04:21:36.324Z,91.26
2018-09-01T04:24:03.853Z,91.32
2018-09-01T04:26:31.410Z,91.49
2018-09-01T04:28:58.945Z,91.62
2018-09-01T04:31:26.467Z,91.49
2018-09-01T04:33:54.082Z,91.33
2018-09-01T04:36:21.598Z,91.39
2018-09-01T04:38:49.115Z,91.37
2018-09-01T04:41:16.705Z,91.36
2018-09-01T04:43:44.290Z,90.97
2018-09-01T04:46:11.843Z,91.04
2018-09-01T04:48:39.379Z,91.05
2018-09-01T04:51:06.930Z,90.72
2018-09-01T04:53:34.487Z,90.90
2018-09-01T04:56:02.020Z,91.15
2018-09-01T04:58:29.558Z,91.19
2018-09-01T05:00:57.396Z,90.98
2018-09-01T05:03:24.850Z,90.83
2018-09-01T05:05:52.370Z,90.72
2018-09-01T05:08:20.179Z,90.19
2018-09-01T05:10:47.692Z,90.51
2018-09-01T05:13:15.216Z,90.31
2018-09-01T05:15:42.770Z,90.47
2018-09-01T05:18:10.308Z,90.69
2018-09-01T05:20:37.846Z,90.66
2018-09-01T05:23:05.373Z,89.93
2018-09-01T05:25:32.982Z,90.32
2018-09-01T05:28:00.557Z,90.56
2018-09-01T05:30:28.093Z,90.27
2018-09-01T05:32:55.727Z,90.34
2018-09-01T05:35:23.309Z,90.88
2018-09-01T05:37:51.099Z,90.79
2018-09-01T05:40:18.625Z,90.40
2018-09-01T05:42:46.166Z,90.75
2018-09-01T05:45:13.725Z,90.83
2018-09-01T05:47:41.310Z,90.59
2018-09-01T05:50:08.937Z,90.12
2018-09-01T05:52:36.486Z,90.15
2018-09-01T05:55:04.270Z,90.43
2018-09-01T05:57:31.788Z,90.05
2018-09-01T05:59:59.311Z,89.80
2018-09-01T06:02:27.124Z,89.57
2018-09-01T06:04:54.662Z,89.15
2018-09-01T06:07:22.286Z,89.29
2018-09-01T06:09:49.836Z,89.39
2018-09-01T06:12:17.402Z,88.99
2018-09-01T06:14:44.944Z,89.26
2018-09-01T06:17:12.490Z,89.18
2018-09-01T06:19:40.090Z,88.58
2018-09-01T06:22:07.610Z,88.53
2018-09-01T06:24:35.187Z,88.74
2018-09-01T06:27:06.676Z,88.58
2018-09-01T06:29:34.280Z,88.30
2018-09-01T06:32:03.657Z,88.56
2018-09-01T06:34:31.206Z,88.28
2018-09-01T06:36:58.791Z,88.35
2018-09-01T06:39:26.389Z,88.46
2018-09-01T06:41:53.915Z,88.42
2018-09-01T06:44:21.486Z,88.51
2018-09-01T06:46:49.024Z,87.94
2018-09-01T06:49:16.726Z,87.97
2018-09-01T06:51:44.291Z,88.41
2018-09-01T06:54:11.907Z,87.59
2018-09-01T06:56:39.454Z,87.42
2018-09-01T06:59:07.074Z,87.19
2018-09-01T07:01:34.683Z,86.90
2018-09-01T07:04:02.329Z,86.72
2018-09-01T07:06:30.093Z,86.52
2018-09-01T07:08:57.663Z,86.19
2018-09-01T07:11:25.731Z,85.65
2018-09-01T07:13:53.282Z,86.27
2018-09-01T07:16:21.007Z,85.99
2018-09-01T07:18:48.895Z,85.24
2018-09-01T07:21:16.542Z,84.62
2018-09-01T07:23:44.103Z,84.92
2018-09-01T07:26:11.917Z,84.69
2018-09-01T07:28:39.482Z,85.28
2018-09-01T07:31:07.416Z,85.20
2018-09-01T07:33:34.687Z,86.00
2018-09-01T07:36:02.287Z,85.73
2018-09-01T07:38:29.846Z,85.38
2018-09-01T07:40:57.391Z,85.20
2018-09-01T07:43:24.935Z,84.87
2018-09-01T07:45:52.499Z,84.46
2018-09-01T07:48:20.106Z,84.40
2018-09-01T07:50:47.677Z,84.50
2018-09-01T07:53:15.271Z,85.10
2018-09-01T07:55:42.829Z,84.99
2018-09-01T07:58:10.362Z,84.51
2018-09-01T08:00:37.979Z,84.34
2018-09-01T08:03:05.571Z,84.38
2018-09-01T08:05:33.211Z,83.80
2018-09-01T08:08:00.985Z,83.89
2018-09-01T08:10:28.530Z,83.91
2018-09-01T08:12:56.103Z,84.01
2018-09-01T08:15:23.661Z,84.08
2018-09-01T08:17:51.166Z,83.50
2018-09-01T08:20:18.768Z,82.97
2018-09-01T08:22:46.389Z,82.25
2018-09-01T08:25:13.985Z,81.28
2018-09-01T08:27:41.539Z,80.94
2018-09-01T08:30:09.095Z,79.83
2018-09-01T08:32:36.652Z,80.40
2018-09-01T08:35:04.409Z,80.52
2018-09-01T08:37:31.969Z,80.75
2018-09-01T08:39:59.564Z,80.83
2018-09-01T08:42:27.089Z,79.56
2018-09-01T08:44:54.649Z,78.74
2018-09-01T08:47:22.190Z,79.35
2018-09-01T08:49:49.749Z,79.05
2018-09-01T08:52:17.278Z,78.37
2018-09-01T08:54:44.819Z,79.11
2018-09-01T08:57:12.415Z,79.72
2018-09-01T08:59:39.993Z,78.40
2018-09-01T09:02:07.916Z,78.35
2018-09-01T09:04:35.442Z,77.27
2018-09-01T09:07:03.038Z,77.67
2018-09-01T09:09:30.712Z,77.05
2018-09-01T09:11:58.262Z,77.90
2018-09-01T09:14:25.807Z,77.08
2018-09-01T09:16:53.451Z,77.54
2018-09-01T09:19:21.003Z,78.66
2018-09-01T09:21:48.572Z,78.93
2018-09-01T09:24:16.167Z,78.81
2018-09-01T09:26:43.749Z,79.73
2018-09-01T09:29:11.310Z,79.26
2018-09-01T09:31:38.850Z,78.76
2018-09-01T09:34:06.450Z,79.48
2018-09-01T09:36:34.038Z,80.36
2018-09-01T09:39:01.563Z,79.71
2018-09-01T09:41:29.878Z,79.41
2018-09-01T09:43:57.415Z,78.31
2018-09-01T09:46:24.975Z,77.83
2018-09-01T09:48:52.875Z,77.17
2018-09-01T09:51:20.390Z,76.20
2018-09-01T09:53:47.931Z,76.35
2018-09-01T09:56:15.581Z,76.18
2018-09-01T09:58:43.176Z,74.01
2018-09-01T10:01:17.421Z,74.45
2018-09-01T10:03:44.978Z,73.46
2018-09-01T10:06:12.524Z,73.63
2018-09-01T10:08:40.128Z,71.39
2018-09-01T10:11:07.720Z,71.48
2018-09-01T10:13:35.212Z,71.84
2018-09-01T10:16:02.811Z,71.96
2018-09-01T10:18:30.398Z,72.22
2018-09-01T10:20:57.963Z,69.79
2018-09-01T10:23:25.546Z,68.49
2018-09-01T10:25:53.100Z,68.72
2018-09-01T10:28:20.750Z,68.77
2018-09-01T10:30:48.276Z,68.08
2018-09-01T10:33:15.862Z,67.95
2018-09-01T10:35:43.421Z,67.78
2018-09-01T10:38:10.986Z,68.44
2018-09-01T10:40:38.574Z,67.34
2018-09-01T10:43:06.088Z,67.41
2018-09-01T10:45:33.723Z,66.41
2018-09-01T10:48:01.291Z,65.25
2018-09-01T10:50:28.840Z,65.25
2018-09-01T10:52:56.387Z,65.06
2018-09-01T10:55:23.930Z,64.69
2018-09-01T10:57:51.506Z,65.40
2018-09-01T11:00:20.160Z,64.28
2018-09-01T11:02:48.438Z,62.96
2018-09-01T11:05:16.000Z,61.38
2018-09-01T11:07:43.563Z,62.20
2018-09-01T11:10:11.130Z,61.66
2018-09-01T11:12:38.674Z,61.78
2018-09-01T11:15:06.265Z,60.60
2018-09-01T11:17:33.831Z,59.05
2018-09-01T11:20:01.437Z,58.64
2018-09-01T11:22:29.126Z,58.67
2018-09-01T11:24:56.687Z,58.27
2018-09-01T11:27:24.336Z,60.26
2018-09-01T11:29:51.818Z,60.97
2018-09-01T11:32:19.374Z,60.57
2018-09-01T11:34:46.940Z,60.78
2018-09-01T11:37:14.599Z,61.80
2018-09-01T11:39:43.084Z,61.67
2018-09-01T11:42:10.665Z,62.13
2018-09-01T11:44:38.210Z,62.02
2018-09-01T11:47:05.828Z,62.32
2018-09-01T11:49:33.435Z,62.18
2018-09-01T11:52:00.989Z,62.97
2018-09-01T11:54:28.568Z,62.50
2018-09-01T11:56:56.264Z,63.11
2018-09-01T11:59:23.843Z,63.26
2018-09-01T12:01:51.411Z,62.93
2018-09-01T12:04:18.978Z,61.99
2018-09-01T12:06:46.724Z,61.16
2018-09-01T12:09:14.374Z,61.50
2018-09-01T12:11:41.894Z,59.83
2018-09-01T12:14:09.483Z,58.75
2018-09-01T12:16:37.019Z,59.85
2018-09-01T12:19:04.611Z,59.70
2018-09-01T12:21:32.225Z,59.07
2018-09-01T12:24:00.011Z,58.99
2018-09-01T12:26:27.545Z,60.38
2018-09-01T12:28:55.079Z,60.13
2018-09-01T12:31:22.641Z,60.78
2018-09-01T12:33:50.507Z,62.15
2018-09-01T12:36:18.146Z,61.44
2018-09-01T12:38:45.639Z,62.08
2018-09-01T12:41:13.222Z,63.37
2018-09-01T12:43:40.812Z,63.95
2018-09-01T12:46:08.411Z,62.93
2018-09-01T12:48:36.015Z,62.61
2018-09-01T12:51:03.579Z,61.96
2018-09-01T12:53:31.186Z,62.75
2018-09-01T12:55:58.762Z,61.84
2018-09-01T12:58:26.302Z,60.31
2018-09-01T13:00:54.024Z,61.89
2018-09-01T13:03:21.543Z,61.43
2018-09-01T13:05:49.135Z,61.10
2018-09-01T13:08:16.708Z,61.16
2018-09-01T13:10:44.250Z,61.02
2018-09-01T13:13:11.792Z,61.71
2018-09-01T13:15:39.326Z,61.62
2018-09-01T13:18:07.006Z,61.20
2018-09-01T13:20:34.575Z,60.95
2018-09-01T13:23:02.143Z,59.58
2018-09-01T13:25:29.726Z,59.08
2018-09-01T13:27:57.277Z,59.91
2018-09-01T13:30:24.864Z,60.20
2018-09-01T13:32:52.452Z,60.49
2018-09-01T13:35:20.007Z,59.15
2018-09-01T13:37:47.559Z,59.34
2018-09-01T13:40:15.282Z,60.20
2018-09-01T13:42:42.795Z,59.61
2018-09-01T13:45:10.347Z,59.04
2018-09-01T13:47:37.958Z,58.38
2018-09-01T13:50:05.570Z,58.72
2018-09-01T13:52:33.121Z,58.37
2018-09-01T13:55:00.754Z,57.82
2018-09-01T13:57:28.719Z,57.07
2018-09-01T13:59:56.178Z,56.68
2018-09-01T14:02:23.726Z,56.91
2018-09-01T14:04:51.556Z,56.62
2018-09-01T14:07:19.104Z,56.07
2018-09-01T14:09:46.668Z,57.05
2018-09-01T14:12:14.242Z,55.40
2018-09-01T14:14:41.880Z,56.26
2018-09-01T14:17:09.459Z,56.38
2018-09-01T14:19:37.008Z,55.04
2018-09-01T14:22:04.571Z,56.01
2018-09-01T14:24:32.165Z,55.21
2018-09-01T14:26:59.647Z,55.34
2018-09-01T14:29:27.145Z,55.85
2018-09-01T14:31:54.658Z,54.36
2018-09-01T14:34:22.355Z,54.25
2018-09-01T14:36:49.858Z,54.56
2018-09-01T14:39:17.395Z,54.32
2018-09-01T14:41:44.990Z,54.55
2018-09-01T14:44:12.513Z,53.97
2018-09-01T14:46:40.073Z,53.77
2018-09-01T14:49:07.910Z,54.04
2018-09-01T14:51:35.489Z,53.14
2018-09-01T14:54:03.018Z,54.05
2018-09-01T14:56:30.607Z,53.36
2018-09-01T14:58:58.140Z,52.13
2018-09-01T15:01:25.721Z,54.19
2018-09-01T15:03:53.257Z,54.18
2018-09-01T15:06:20.855Z,54.37
2018-09-01T15:08:48.400Z,52.75
2018-09-01T15:11:15.963Z,53.74
2018-09-01T15:13:43.551Z,53.00
2018-09-01T15:16:11.111Z,52.46
2018-09-01T15:18:38.669Z,53.22
2018-09-01T15:21:06.255Z,51.41
2018-09-01T15:23:33.806Z,51.11
2018-09-01T15:26:01.401Z,53.42
2018-09-01T15:28:28.979Z,53.30
2018-09-01T15:30:56.530Z,53.01
2018-09-01T15:33:24.077Z,52.66
2018-09-01T15:35:51.596Z,53.06
2018-09-01T15:38:19.677Z,54.08
2018-09-01T15:40:47.298Z,54.00
2018-09-01T15:43:14.847Z,54.48
2018-09-01T15:45:42.395Z,53.97
2018-09-01T15:48:10.025Z,54.80
2018-09-01T15:50:37.853Z,55.59
2018-09-01T15:53:05.400Z,54.96
2018-09-01T15:55:32.953Z,54.60
2018-09-01T15:58:00.602Z,54.35
2018-09-01T16:00:28.144Z,55.39
2018-09-01T16:02:56.110Z,54.40
2018-09-01T16:05:23.726Z,54.89
2018-09-01T16:07:51.278Z,55.13
2018-09-01T16:10:18.835Z,54.43
2018-09-01T16:12:46.390Z,55.26
2018-09-01T16:15:14.007Z,54.83
2018-09-01T16:17:41.505Z,55.53
2018-09-01T16:20:09.127Z,57.24
2018-09-01T16:22:36.657Z,57.55
2018-09-01T16:25:04.335Z,57.94
2018-09-01T16:27:31.915Z,57.37
2018-09-01T16:29:59.446Z,57.35
2018-09-01T16:32:27.037Z,57.63
2018-09-01T16:34:54.590Z,57.88
2018-09-01T16:37:22.183Z,58.77
2018-09-01T16:39:49.762Z,58.40
2018-09-01T16:42:17.340Z,56.70
2018-09-01T16:44:44.879Z,58.11
2018-09-01T16:47:12.440Z,58.99
2018-09-01T16:49:39.967Z,58.13
2018-09-01T16:52:07.572Z,58.61
2018-09-01T16:54:35.194Z,58.92
2018-09-01T16:57:03.095Z,60.47
2018-09-01T16:59:30.621Z,59.24
2018-09-01T17:01:58.170Z,57.73
2018-09-01T17:04:25.750Z,59.02
2018-09-01T17:06:53.315Z,59.80
2018-09-01T17:09:20.920Z,59.47
2018-09-01T17:11:48.500Z,59.39
2018-09-01T17:14:16.071Z,57.96
2018-09-01T17:16:43.589Z,59.10
2018-09-01T17:19:11.183Z,59.80
2018-09-01T17:21:38.725Z,59.15
2018-09-01T17:24:06.241Z,58.90
2018-09-01T17:26:34.667Z,60.14
2018-09-01T17:29:02.232Z,58.29
2018-09-01T17:31:29.886Z,58.60
2018-09-01T17:33:57.521Z,61.18
2018-09-01T17:36:25.098Z,60.94
2018-09-01T17:38:52.679Z,61.39
2018-09-01T17:41:20.305Z,61.21
2018-09-01T17:43:47.889Z,60.78
2018-09-01T17:46:15.473Z,59.38
2018-09-01T17:48:43.021Z,59.96
2018-09-01T17:51:11.582Z,59.67
2018-09-01T17:53:39.121Z,61.55
2018-09-01T17:56:06.769Z,62.16
2018-09-01T17:58:34.354Z,64.09
2018-09-01T18:01:01.905Z,63.83
2018-09-01T18:03:29.442Z,64.96
2018-09-01T18:05:56.999Z,64.51
2018-09-01T18:08:24.558Z,65.45
2018-09-01T18:10:52.174Z,65.92
2018-09-01T18:13:19.714Z,66.52
2018-09-01T18:15:47.263Z,67.17
2018-09-01T18:18:15.447Z,67.31
2018-09-01T18:20:43.011Z,67.96
2018-09-01T18:23:10.547Z,68.94
2018-09-01T18:25:38.394Z,70.02
2018-09-01T18:28:05.957Z,70.69
2018-09-01T18:30:33.491Z,69.51
2018-09-01T18:33:01.215Z,69.17
2018-09-01T18:35:28.810Z,69.87
2018-09-01T18:37:56.381Z,69.07
2018-09-01T18:40:23.954Z,70.47
2018-09-01T18:42:51.509Z,70.68
2018-09-01T18:45:19.078Z,70.85
2018-09-01T18:47:46.629Z,69.99
2018-09-01T18:50:14.183Z,69.21
2018-09-01T18:52:41.757Z,70.69
2018-09-01T18:55:09.331Z,71.90
2018-09-01T18:57:36.899Z,69.78
2018-09-01T19:00:04.927Z,69.70
2018-09-01T19:02:32.626Z,70.33
2018-09-01T19:05:00.170Z,72.36
2018-09-01T19:07:27.731Z,72.22
2018-09-01T19:09:55.307Z,69.97
2018-09-01T19:12:22.907Z,69.38
2018-09-01T19:14:50.475Z,69.79
2018-09-01T19:17:18.109Z,69.69
2018-09-01T19:19:45.793Z,69.34
2018-09-01T19:22:13.423Z,69.72
2018-09-01T19:24:41.032Z,70.47
2018-09-01T19:27:08.661Z,71.38
2018-09-01T19:29:36.207Z,71.32
2018-09-01T19:32:03.758Z,71.68
2018-09-01T19:34:31.363Z,72.13
2018-09-01T19:36:58.937Z,72.67
2018-09-01T19:39:26.509Z,73.28
2018-09-01T19:41:54.119Z,71.90
2018-09-01T19:44:21.704Z,71.56
2018-09-01T19:46:49.385Z,72.03
2018-09-01T19:49:16.999Z,72.37
2018-09-01T19:51:44.592Z,73.64
2018-09-01T19:54:12.356Z,73.26
2018-09-01T19:56:40.097Z,72.94
2018-09-01T19:59:07.728Z,71.61
2018-09-01T20:01:35.288Z,72.53
2018-09-01T20:04:03.331Z,73.21
2018-09-01T20:06:31.083Z,73.39
2018-09-01T20:08:58.692Z,72.57
2018-09-01T20:11:26.372Z,71.96
2018-09-01T20:13:54.083Z,71.99
2018-09-01T20:16:21.725Z,72.29
2018-09-01T20:18:49.354Z,72.79
2018-09-01T20:21:17.002Z,72.85
2018-09-01T20:23:44.851Z,72.19
2018-09-01T20:26:12.427Z,72.83
2018-09-01T20:28:39.982Z,72.45
2018-09-01T20:31:07.567Z,72.73
2018-09-01T20:33:35.088Z,73.02
2018-09-01T20:36:02.749Z,74.01
2018-09-01T20:38:30.338Z,73.95
2018-09-01T20:40:57.942Z,73.85
2018-09-01T20:43:25.644Z,73.84
2018-09-01T20:45:53.216Z,73.69
2018-09-01T20:48:20.775Z,73.93
2018-09-01T20:50:48.330Z,73.69
2018-09-01T20:53:15.873Z,75.04
2018-09-01T20:55:43.441Z,74.73
2018-09-01T20:58:11.360Z,74.09
2018-09-01T21:00:39.461Z,74.30
2018-09-01T21:03:07.036Z,73.89
2018-09-01T21:05:34.574Z,74.69
2018-09-01T21:08:02.214Z,74.60
2018-09-01T21:10:29.755Z,73.21
2018-09-01T21:12:57.339Z,73.24
2018-09-01T21:15:24.918Z,74.73
2018-09-01T21:17:52.458Z,74.32
2018-09-01T21:20:20.051Z,73.82
2018-09-01T21:22:47.654Z,73.72
2018-09-01T21:25:15.226Z,74.95
2018-09-01T21:27:42.778Z,75.63
2018-09-01T21:30:10.296Z,74.82
2018-09-01T21:32:37.854Z,73.77
2018-09-01T21:35:05.410Z,74.52
2018-09-01T21:37:32.985Z,74.91
2018-09-01T21:40:00.565Z,74.47
2018-09-01T21:42:28.119Z,73.32
2018-09-01T21:44:56.014Z,72.65
2018-09-01T21:47:23.651Z,72.42
2018-09-01T21:49:51.274Z,73.49
2018-09-01T21:52:18.845Z,73.17
2018-09-01T21:54:46.414Z,74.36
2018-09-01T21:57:13.967Z,74.39
2018-09-01T21:59:41.615Z,73.53
2018-09-01T22:02:15.723Z,74.01
2018-09-01T22:04:49.147Z,74.23
2018-09-01T22:07:19.511Z,74.69
2018-09-01T22:09:47.098Z,75.33
2018-09-01T22:12:14.855Z,75.32
2018-09-01T22:14:42.408Z,74.45
2018-09-01T22:17:10.014Z,74.04
2018-09-01T22:19:37.662Z,74.45
2018-09-01T22:22:05.368Z,75.14
2018-09-01T22:24:32.931Z,75.31
2018-09-01T22:27:00.805Z,74.63
2018-09-01T22:29:28.348Z,73.97
2018-09-01T22:31:55.851Z,73.72
2018-09-01T22:34:23.619Z,73.84
2018-09-01T22:36:51.289Z,74.26
2018-09-01T22:39:18.839Z,74.74
2018-09-01T22:41:46.434Z,73.81
2018-09-01T22:44:14.004Z,74.25
2018-09-01T22:46:41.591Z,74.19
2018-09-01T22:49:09.137Z,74.87
2018-09-01T22:51:36.700Z,74.15
2018-09-01T22:54:04.286Z,74.03
2018-09-01T22:56:31.855Z,75.19
2018-09-01T22:58:59.416Z,74.84
2018-09-01T23:01:27.014Z,74.09
2018-09-01T23:03:54.550Z,73.70
2018-09-01T23:06:22.127Z,73.63
2018-09-01T23:08:49.678Z,74.33
2018-09-01T23:11:17.250Z,75.24
2018-09-01T23:13:44.782Z,73.98
2018-09-01T23:16:12.359Z,74.11
2018-09-01T23:18:40.008Z,74.00
2018-09-01T23:21:07.533Z,74.53
2018-09-01T23:23:35.107Z,74.19
2018-09-01T23:26:02.644Z,74.30
2018-09-01T23:28:30.208Z,75.49
2018-09-01T23:30:57.805Z,75.09
2018-09-01T23:33:25.405Z,75.09
2018-09-01T23:35:52.931Z,75.80
2018-09-01T23:38:20.501Z,75.79
2018-09-01T23:40:48.067Z,75.74
2018-09-01T23:43:15.587Z,76.01
2018-09-01T23:45:43.139Z,75.74
2018-09-01T23:48:10.679Z,75.56
2018-09-01T23:50:38.193Z,75.54
2018-09-01T23:53:05.766Z,74.38
2018-09-01T23:55:33.291Z,73.84
2018-09-01T23:58:00.885Z,73.92
